Time;durP1;ratioP1;P1;durP2;ratioP2;P2;SDS_P1;SDS_P2;PMS_P1;PMS_P2;Temp;Humidity;BMP_temperature;BMP_pressure;BME280_temperature;BME280_humidity;BME280_pressure;Samples;Min_cycle;Max_cycle;Signal;HPM_P1;HPM_P2
2022/12/30 00:00:45;;;;;;;;;;;21.50;91.40;;;;;;6244835;22;19908;-76
2022/12/30 00:03:12;;;;;;;;;;;21.50;91.40;;;;;;6244802;22;19908;-77
2022/12/30 00:05:38;;;;;;;;;;;21.50;91.30;;;;;;6245049;22;19904;-76
2022/12/30 00:08:45;;;;;;;;;;;21.50;91.30;;;;;;6244924;22;20268;-76
2022/12/30 00:10:51;;;;;;;;;;;21.50;91.60;;;;;;6244757;22;19904;-76
2022/12/30 00:35:20;;;;;;;;;;;21.70;89.70;;;;;;6245073;23;20346;-76
2022/12/30 00:37:46;;;;;;;;;;;21.80;89.60;;;;;;6246331;22;19994;-76
2022/12/30 00:40:13;;;;;;;;;;;21.80;89.10;;;;;;6244791;23;20297;-76
2022/12/30 00:45:24;;;;;;;;;;;21.80;88.60;;;;;;6246600;23;20336;-76
2022/12/30 00:47:50;;;;;;;;;;;21.90;89.10;;;;;;6244921;23;19912;-76
2022/12/30 00:58:31;;;;;;;;;;;22.30;89.20;;;;;;6246260;23;19953;-76
2022/12/30 01:00:57;;;;;;;;;;;22.30;89.10;;;;;;6245912;22;20319;-76
2022/12/30 01:03:24;;;;;;;;;;;22.30;88.50;;;;;;6245944;22;19946;-76
2022/12/30 01:05:51;;;;;;;;;;;22.30;87.90;;;;;;6246111;22;19903;-75
2022/12/30 01:08:17;;;;;;;;;;;22.30;88.60;;;;;;6244378;23;19911;-75
2022/12/30 01:10:44;;;;;;;;;;;22.30;86.80;;;;;;6246040;22;19934;-76
2022/12/30 01:13:10;;;;;;;;;;;22.30;86.30;;;;;;6245009;23;19982;-75
2022/12/30 01:15:37;;;;;;;;;;;22.20;86.50;;;;;;6246158;22;19904;-75
2022/12/30 01:18:04;;;;;;;;;;;22.20;87.60;;;;;;6245801;22;20251;-75
2022/12/30 01:20:30;;;;;;;;;;;22.20;86.70;;;;;;6245541;22;19914;-76
2022/12/30 01:22:57;;;;;;;;;;;22.20;86.00;;;;;;6245653;22;19907;-75
2022/12/30 01:25:23;;;;;;;;;;;22.20;86.20;;;;;;6245824;22;19907;-75
2022/12/30 01:27:50;;;;;;;;;;;22.10;86.00;;;;;;6245957;22;19961;-75
2022/12/30 01:30:17;;;;;;;;;;;22.20;85.80;;;;;;6246032;22;19911;-75
2022/12/30 01:32:44;;;;;;;;;;;22.10;84.80;;;;;;6245929;22;19903;-75
2022/12/30 01:35:11;;;;;;;;;;;22.10;84.60;;;;;;6245856;22;19904;-75
2022/12/30 01:37:38;;;;;;;;;;;22.20;85.60;;;;;;6243824;23;20319;-75
2022/12/30 01:40:05;;;;;;;;;;;22.20;85.50;;;;;;6245680;22;19908;-75
2022/12/30 01:42:31;;;;;;;;;;;22.20;84.20;;;;;;6245746;22;19903;-75
2022/12/30 01:44:59;;;;;;;;;;;22.20;83.70;;;;;;6243709;23;19911;-75
2022/12/30 01:47:26;;;;;;;;;;;22.30;84.20;;;;;;6245277;22;19935;-75
2022/12/30 01:49:54;;;;;;;;;;;22.30;84.90;;;;;;6245288;22;19903;-75
2022/12/30 01:52:21;;;;;;;;;;;22.30;82.90;;;;;;6243997;22;19903;-75
2022/12/30 01:54:48;;;;;;;;;;;22.30;83.60;;;;;;6218786;23;19987;-74
2022/12/30 01:57:14;;;;;;;;;;;22.30;82.80;;;;;;6245701;22;19903;-74
2022/12/30 01:59:41;;;;;;;;;;;22.30;83.00;;;;;;6244336;23;19903;-74
2022/12/30 02:02:07;;;;;;;;;;;22.30;83.40;;;;;;6245784;22;19911;-75
2022/12/30 02:04:34;;;;;;;;;;;22.40;83.30;;;;;;6245472;22;19958;-75
2022/12/30 02:07:19;;;;;;;;;;;22.30;83.50;;;;;;6245436;22;20239;-74
2022/12/30 02:09:45;;;;;;;;;;;22.40;83.10;;;;;;6245745;23;19912;-74
2022/12/30 02:12:12;;;;;;;;;;;22.50;83.00;;;;;;6244266;22;19908;-74
2022/12/30 02:14:39;;;;;;;;;;;22.50;83.10;;;;;;6246210;22;19908;-74
2022/12/30 02:17:24;;;;;;;;;;;22.70;82.80;;;;;;6245417;22;19990;-74
2022/12/30 02:20:02;;;;;;;;;;;22.60;82.60;;;;;;6245371;23;19908;-74
2022/12/30 02:22:29;;;;;;;;;;;22.70;82.70;;;;;;6245257;22;20036;-74
2022/12/30 02:25:14;;;;;;;;;;;22.70;81.70;;;;;;6245730;22;19909;-74
2022/12/30 02:27:50;;;;;;;;;;;22.70;80.60;;;;;;6245411;23;19910;-75
2022/12/30 02:30:34;;;;;;;;;;;22.70;80.90;;;;;;6245393;22;19912;-74
2022/12/30 02:33:08;;;;;;;;;;;22.70;80.50;;;;;;6245219;22;19903;-74
2022/12/30 02:35:37;;;;;;;;;;;22.70;79.80;;;;;;6245384;22;19974;-74
2022/12/30 02:38:10;;;;;;;;;;;22.70;80.10;;;;;;6245187;22;19946;-75
2022/12/30 02:46:06;;;;;;;;;;;22.80;80.30;;;;;;6243273;23;20274;-74
2022/12/30 02:48:33;;;;;;;;;;;22.80;79.90;;;;;;6243412;23;20291;-74
2022/12/30 02:53:44;;;;;;;;;;;22.90;81.40;;;;;;6244213;23;19919;-73
2022/12/30 02:56:11;;;;;;;;;;;22.90;79.30;;;;;;6245346;22;19911;-74
2022/12/30 02:58:46;;;;;;;;;;;22.90;79.50;;;;;;6245408;22;20219;-74
2022/12/30 03:04:19;;;;;;;;;;;23.00;79.00;;;;;;6245042;23;19956;-74
2022/12/30 03:06:55;;;;;;;;;;;23.00;80.00;;;;;;6245239;22;19904;-74
2022/12/30 03:09:34;;;;;;;;;;;23.10;78.90;;;;;;6243531;23;19922;-74
2022/12/30 03:12:14;;;;;;;;;;;23.10;79.80;;;;;;6244695;22;20319;-74
2022/12/30 03:15:13;;;;;;;;;;;23.00;79.50;;;;;;6245088;22;20045;-74
2022/12/30 03:17:39;;;;;;;;;;;23.00;79.80;;;;;;6178473;22;19915;-74
2022/12/30 03:20:10;;;;;;;;;;;23.00;79.40;;;;;;6243483;23;19912;-74
2022/12/30 03:28:07;;;;;;;;;;;23.00;79.50;;;;;;6245657;23;20053;-74
2022/12/30 03:30:34;;;;;;;;;;;23.00;79.20;;;;;;6243599;23;19910;-74
2022/12/30 03:33:01;;;;;;;;;;;23.00;78.70;;;;;;6243852;22;19914;-74
2022/12/30 03:35:27;;;;;;;;;;;23.10;79.10;;;;;;6243779;23;19910;-74
2022/12/30 03:37:54;;;;;;;;;;;23.10;78.00;;;;;;6243353;23;20323;-74
2022/12/30 03:40:35;;;;;;;;;;;23.20;79.10;;;;;;6243595;23;19911;-74
2022/12/30 03:43:01;;;;;;;;;;;23.20;78.80;;;;;;6243603;22;19933;-74
2022/12/30 03:45:28;;;;;;;;;;;23.20;78.40;;;;;;6243698;23;20031;-74
2022/12/30 03:47:54;;;;;;;;;;;23.30;79.50;;;;;;6243136;23;19998;-73
2022/12/30 03:50:21;;;;;;;;;;;23.30;79.30;;;;;;6244757;22;19910;-73
2022/12/30 03:52:48;;;;;;;;;;;23.30;78.00;;;;;;6244715;22;19949;-73
2022/12/30 03:55:14;;;;;;;;;;;23.20;78.10;;;;;;6245131;22;20234;-73
2022/12/30 03:57:41;;;;;;;;;;;23.20;77.50;;;;;;6245668;22;19958;-73
2022/12/30 04:00:11;;;;;;;;;;;23.20;77.90;;;;;;6246126;22;19911;-73
2022/12/30 04:02:38;;;;;;;;;;;23.20;78.30;;;;;;6246697;22;19907;-74
2022/12/30 04:05:05;;;;;;;;;;;23.20;79.10;;;;;;6246835;22;19908;-73
2022/12/30 04:07:33;;;;;;;;;;;23.20;78.70;;;;;;6247024;22;19931;-73
2022/12/30 04:10:00;;;;;;;;;;;23.20;78.70;;;;;;6247066;22;20378;-73
2022/12/30 04:12:27;;;;;;;;;;;23.20;78.10;;;;;;6245078;22;20255;-73
2022/12/30 04:14:54;;;;;;;;;;;23.20;79.10;;;;;;6247024;22;19908;-73
2022/12/30 04:17:20;;;;;;;;;;;23.20;79.10;;;;;;6246870;22;20208;-73
2022/12/30 04:19:47;;;;;;;;;;;23.20;80.10;;;;;;6246722;22;19982;-73
2022/12/30 04:22:13;;;;;;;;;;;23.20;79.70;;;;;;6246658;22;19986;-73
2022/12/30 04:24:40;;;;;;;;;;;23.20;78.70;;;;;;6246486;22;20250;-73
2022/12/30 04:27:07;;;;;;;;;;;23.20;79.20;;;;;;6246475;22;19904;-73
2022/12/30 04:29:34;;;;;;;;;;;23.30;79.00;;;;;;6246794;22;20284;-73
2022/12/30 04:32:00;;;;;;;;;;;23.30;78.80;;;;;;6246554;22;19904;-74
2022/12/30 04:34:27;;;;;;;;;;;23.30;78.50;;;;;;6246440;22;20234;-73
2022/12/30 04:36:53;;;;;;;;;;;23.30;78.60;;;;;;6246134;22;19910;-73
2022/12/30 04:39:20;;;;;;;;;;;23.40;78.90;;;;;;6247104;22;19919;-73
2022/12/30 04:41:47;;;;;;;;;;;23.40;78.90;;;;;;6246546;22;19908;-74
2022/12/30 04:44:14;;;;;;;;;;;23.40;78.60;;;;;;6246418;22;20370;-74
2022/12/30 04:46:40;;;;;;;;;;;23.40;79.30;;;;;;6246548;22;19910;-74
2022/12/30 04:49:07;;;;;;;;;;;23.50;79.30;;;;;;6246452;22;19916;-73
2022/12/30 04:51:34;;;;;;;;;;;23.40;78.80;;;;;;6246447;22;19904;-73
2022/12/30 04:54:00;;;;;;;;;;;23.40;78.60;;;;;;6246501;22;19904;-74
2022/12/30 04:56:27;;;;;;;;;;;23.30;78.80;;;;;;6246834;22;19904;-74
2022/12/30 04:58:54;;;;;;;;;;;23.30;78.00;;;;;;6246625;22;20335;-73
2022/12/30 05:01:20;;;;;;;;;;;23.30;78.20;;;;;;6245999;22;19914;-73
2022/12/30 05:03:47;;;;;;;;;;;23.30;78.80;;;;;;6246645;22;19904;-74
2022/12/30 05:06:14;;;;;;;;;;;23.30;78.90;;;;;;6246776;22;19908;-73
2022/12/30 05:08:40;;;;;;;;;;;23.30;78.50;;;;;;6245957;22;19915;-74
2022/12/30 05:11:07;;;;;;;;;;;23.30;79.00;;;;;;6246254;22;19904;-74
2022/12/30 05:13:34;;;;;;;;;;;23.40;79.70;;;;;;6246341;22;19910;-74
2022/12/30 05:16:00;;;;;;;;;;;23.40;79.30;;;;;;6246098;22;19910;-73
2022/12/30 05:18:27;;;;;;;;;;;23.30;77.30;;;;;;6246439;22;19904;-73
2022/12/30 05:20:53;;;;;;;;;;;23.40;78.70;;;;;;6246317;22;19934;-74
2022/12/30 05:26:21;;;;;;;;;;;23.30;77.60;;;;;;6183364;23;20221;-74
2022/12/30 05:28:48;;;;;;;;;;;23.40;77.60;;;;;;6232725;22;19912;-73
2022/12/30 05:31:15;;;;;;;;;;;23.40;78.10;;;;;;6246128;22;19912;-73
2022/12/30 05:33:42;;;;;;;;;;;23.40;78.60;;;;;;6245657;22;19903;-73
2022/12/30 05:36:09;;;;;;;;;;;23.40;78.40;;;;;;6246185;22;19934;-74
2022/12/30 05:38:36;;;;;;;;;;;23.40;78.80;;;;;;6245672;22;19950;-73
2022/12/30 05:41:02;;;;;;;;;;;23.40;78.60;;;;;;6245635;22;19925;-74
2022/12/30 05:43:29;;;;;;;;;;;23.40;78.60;;;;;;6245923;22;19904;-73
2022/12/30 05:45:57;;;;;;;;;;;23.40;78.40;;;;;;6246092;22;19911;-73
2022/12/30 05:48:24;;;;;;;;;;;23.40;78.00;;;;;;6245975;22;19955;-73
2022/12/30 05:50:50;;;;;;;;;;;23.40;78.20;;;;;;6244606;22;19907;-73
2022/12/30 05:53:17;;;;;;;;;;;23.40;78.20;;;;;;6245502;22;20361;-73
2022/12/30 05:55:44;;;;;;;;;;;23.40;76.90;;;;;;6245892;22;19903;-73
2022/12/30 05:58:10;;;;;;;;;;;23.40;78.00;;;;;;6245772;22;19904;-74
2022/12/30 06:00:37;;;;;;;;;;;23.40;78.60;;;;;;6245684;22;19903;-74
2022/12/30 06:03:03;;;;;;;;;;;23.40;76.60;;;;;;6245447;22;19904;-74
2022/12/30 06:05:30;;;;;;;;;;;23.30;78.10;;;;;;6245955;22;19904;-74
2022/12/30 06:07:57;;;;;;;;;;;23.30;77.70;;;;;;6245610;22;19935;-73
2022/12/30 06:10:23;;;;;;;;;;;23.20;76.70;;;;;;6245520;22;20116;-73
2022/12/30 06:12:50;;;;;;;;;;;23.20;77.10;;;;;;6245636;22;19927;-73
2022/12/30 06:15:17;;;;;;;;;;;23.10;77.90;;;;;;6245629;22;19939;-73
2022/12/30 06:17:43;;;;;;;;;;;23.00;78.50;;;;;;6245896;22;19912;-74
2022/12/30 06:20:10;;;;;;;;;;;23.10;78.40;;;;;;6245744;22;19961;-73
2022/12/30 06:22:36;;;;;;;;;;;23.00;78.50;;;;;;6245474;22;20337;-73
2022/12/30 06:25:03;;;;;;;;;;;23.00;78.50;;;;;;6245715;22;19939;-73
2022/12/30 06:27:30;;;;;;;;;;;23.00;79.00;;;;;;6245842;22;19903;-73
2022/12/30 06:29:56;;;;;;;;;;;23.00;78.50;;;;;;6245563;22;19918;-74
2022/12/30 06:32:23;;;;;;;;;;;23.00;77.60;;;;;;6245001;22;19904;-73
2022/12/30 06:34:50;;;;;;;;;;;23.00;77.60;;;;;;6245348;22;19904;-73
2022/12/30 06:37:16;;;;;;;;;;;22.90;76.50;;;;;;6244868;22;19916;-73
2022/12/30 06:39:43;;;;;;;;;;;23.00;76.30;;;;;;6245568;22;19958;-73
2022/12/30 06:42:10;;;;;;;;;;;23.00;77.20;;;;;;6245573;22;19962;-73
2022/12/30 06:44:36;;;;;;;;;;;23.00;77.20;;;;;;6245200;22;19918;-73
2022/12/30 06:47:03;;;;;;;;;;;23.10;77.90;;;;;;6245686;22;19951;-73
2022/12/30 06:49:29;;;;;;;;;;;23.00;76.90;;;;;;6245419;22;19986;-73
2022/12/30 06:51:56;;;;;;;;;;;23.10;77.50;;;;;;6245084;22;20354;-73
2022/12/30 06:54:23;;;;;;;;;;;23.10;77.90;;;;;;6245138;22;19950;-73
2022/12/30 06:56:49;;;;;;;;;;;23.00;77.80;;;;;;6245275;22;19949;-73
2022/12/30 06:59:16;;;;;;;;;;;23.10;78.00;;;;;;6245338;22;19950;-73
2022/12/30 07:01:42;;;;;;;;;;;23.00;77.90;;;;;;6244821;22;19911;-73
2022/12/30 07:04:09;;;;;;;;;;;23.00;77.90;;;;;;6245033;22;20353;-73
2022/12/30 07:06:36;;;;;;;;;;;23.00;77.60;;;;;;6243463;23;20102;-73
2022/12/30 07:09:02;;;;;;;;;;;23.00;78.00;;;;;;6243994;23;20283;-73
2022/12/30 07:11:29;;;;;;;;;;;23.00;78.70;;;;;;6245780;22;19982;-73
2022/12/30 07:13:55;;;;;;;;;;;23.00;79.10;;;;;;6245565;22;19908;-73
2022/12/30 07:16:22;;;;;;;;;;;23.00;78.70;;;;;;6245419;22;19903;-73
2022/12/30 07:18:49;;;;;;;;;;;22.90;78.50;;;;;;6245327;22;19904;-73
2022/12/30 07:21:15;;;;;;;;;;;22.90;78.90;;;;;;6245223;22;19904;-74
2022/12/30 07:23:42;;;;;;;;;;;23.00;78.70;;;;;;6245014;22;19903;-73
2022/12/30 07:26:08;;;;;;;;;;;22.90;79.00;;;;;;6245004;22;19904;-73
2022/12/30 07:28:35;;;;;;;;;;;22.90;79.30;;;;;;6244931;22;19965;-73
2022/12/30 07:31:02;;;;;;;;;;;23.00;79.40;;;;;;6243273;22;19982;-73
2022/12/30 07:33:28;;;;;;;;;;;23.00;79.70;;;;;;6246434;22;19911;-73
2022/12/30 07:35:55;;;;;;;;;;;22.90;79.50;;;;;;6247055;22;20413;-73
2022/12/30 07:38:21;;;;;;;;;;;22.90;79.00;;;;;;6246631;22;19922;-73
2022/12/30 07:40:48;;;;;;;;;;;22.90;78.90;;;;;;6246930;22;19924;-73
2022/12/30 07:43:15;;;;;;;;;;;22.90;78.60;;;;;;6247535;22;19907;-74
2022/12/30 07:45:42;;;;;;;;;;;22.90;79.30;;;;;;6247177;22;19904;-73
2022/12/30 07:48:08;;;;;;;;;;;22.80;78.90;;;;;;6246784;22;19912;-73
2022/12/30 07:50:35;;;;;;;;;;;22.80;78.90;;;;;;6247395;22;20238;-73
2022/12/30 07:53:02;;;;;;;;;;;22.80;78.90;;;;;;6245530;22;19905;-73
2022/12/30 07:55:28;;;;;;;;;;;22.80;79.40;;;;;;6246971;22;20242;-73
2022/12/30 07:57:55;;;;;;;;;;;22.80;79.80;;;;;;6246740;22;19904;-74
2022/12/30 08:00:22;;;;;;;;;;;22.80;79.50;;;;;;6246828;22;20212;-73
2022/12/30 08:02:48;;;;;;;;;;;22.80;80.20;;;;;;6246782;22;19987;-73
2022/12/30 08:05:15;;;;;;;;;;;22.80;80.00;;;;;;6247101;22;20281;-73
2022/12/30 08:07:42;;;;;;;;;;;22.80;80.00;;;;;;6246775;22;19983;-73
2022/12/30 08:10:08;;;;;;;;;;;22.80;80.00;;;;;;6246740;22;19910;-73
2022/12/30 08:12:35;;;;;;;;;;;22.80;80.20;;;;;;6246677;22;19957;-73
2022/12/30 08:15:02;;;;;;;;;;;22.80;79.90;;;;;;6246955;22;19904;-73
2022/12/30 08:17:29;;;;;;;;;;;22.80;80.40;;;;;;6246920;22;19903;-74
2022/12/30 08:19:55;;;;;;;;;;;22.70;79.60;;;;;;6245152;23;19950;-73
2022/12/30 08:22:22;;;;;;;;;;;22.70;79.70;;;;;;6246973;22;19957;-73
2022/12/30 08:24:49;;;;;;;;;;;22.70;80.20;;;;;;6246723;22;19978;-73
2022/12/30 08:27:15;;;;;;;;;;;22.70;80.20;;;;;;6246459;22;20049;-73
2022/12/30 08:29:42;;;;;;;;;;;22.70;80.30;;;;;;6246481;22;19912;-73
2022/12/30 08:32:08;;;;;;;;;;;22.70;80.10;;;;;;6247159;22;19914;-73
2022/12/30 08:34:35;;;;;;;;;;;22.70;80.50;;;;;;6246982;22;19914;-73
2022/12/30 08:37:02;;;;;;;;;;;22.60;79.90;;;;;;6246166;22;19903;-73
2022/12/30 08:39:28;;;;;;;;;;;22.60;80.00;;;;;;6245383;23;19935;-73
2022/12/30 08:41:55;;;;;;;;;;;22.70;80.00;;;;;;6247097;22;19904;-73
2022/12/30 08:44:21;;;;;;;;;;;22.60;79.80;;;;;;6246094;22;19911;-73
2022/12/30 08:46:48;;;;;;;;;;;22.50;79.40;;;;;;6246617;22;20319;-73
2022/12/30 08:49:15;;;;;;;;;;;22.50;79.60;;;;;;6246571;22;19943;-73
2022/12/30 08:51:41;;;;;;;;;;;22.50;79.90;;;;;;6246583;22;19903;-73
2022/12/30 08:54:08;;;;;;;;;;;22.50;79.50;;;;;;6246906;22;19903;-73
2022/12/30 08:56:35;;;;;;;;;;;22.50;79.30;;;;;;6246900;22;19957;-73
2022/12/30 08:59:02;;;;;;;;;;;22.50;79.80;;;;;;6246202;22;19908;-73
2022/12/30 09:01:29;;;;;;;;;;;22.40;79.70;;;;;;6244756;22;19935;-73
2022/12/30 09:03:56;;;;;;;;;;;22.40;79.30;;;;;;6246564;22;19914;-73
2022/12/30 09:06:23;;;;;;;;;;;22.40;79.80;;;;;;6246474;22;19908;-73
2022/12/30 09:08:50;;;;;;;;;;;22.40;80.00;;;;;;6246565;22;19911;-73
2022/12/30 09:11:18;;;;;;;;;;;22.40;80.00;;;;;;6246238;22;19930;-73
2022/12/30 09:13:45;;;;;;;;;;;22.30;79.80;;;;;;6246031;22;19907;-73
2022/12/30 09:16:12;;;;;;;;;;;22.30;80.50;;;;;;6246372;22;19904;-73
2022/12/30 09:18:39;;;;;;;;;;;22.30;80.40;;;;;;6246238;22;19903;-73
2022/12/30 09:21:06;;;;;;;;;;;22.30;80.80;;;;;;6246258;22;20354;-73
2022/12/30 09:23:32;;;;;;;;;;;22.30;80.90;;;;;;6244725;23;19930;-73
2022/12/30 09:25:59;;;;;;;;;;;22.30;80.60;;;;;;6246435;22;20274;-73
2022/12/30 09:28:26;;;;;;;;;;;22.30;80.60;;;;;;6244636;23;20358;-73
2022/12/30 09:30:52;;;;;;;;;;;22.30;80.40;;;;;;6245982;22;19911;-73
2022/12/30 09:33:19;;;;;;;;;;;22.30;80.10;;;;;;6246188;22;19904;-73
2022/12/30 09:35:45;;;;;;;;;;;22.30;80.30;;;;;;6246037;22;19927;-72
2022/12/30 09:38:12;;;;;;;;;;;22.30;80.30;;;;;;6246265;22;19919;-73
2022/12/30 09:40:48;;;;;;;;;;;22.30;80.70;;;;;;6246117;22;20259;-73
2022/12/30 09:43:21;;;;;;;;;;;22.20;80.80;;;;;;6246206;22;19930;-73
2022/12/30 09:46:09;;;;;;;;;;;22.20;80.40;;;;;;6244293;23;19939;-73
2022/12/30 09:48:39;;;;;;;;;;;22.30;80.40;;;;;;6245973;22;19995;-73
2022/12/30 09:51:06;;;;;;;;;;;22.20;80.50;;;;;;6244267;22;19907;-73
2022/12/30 09:53:32;;;;;;;;;;;22.20;80.70;;;;;;6244636;23;19911;-72
2022/12/30 09:56:03;;;;;;;;;;;22.20;80.90;;;;;;6245403;22;20322;-73
2022/12/30 09:58:30;;;;;;;;;;;22.20;81.20;;;;;;6245342;22;19977;-73
2022/12/30 10:00:58;;;;;;;;;;;22.20;81.10;;;;;;6244283;22;19904;-73
2022/12/30 10:03:29;;;;;;;;;;;22.20;81.10;;;;;;6245753;22;20405;-73
2022/12/30 10:05:58;;;;;;;;;;;22.20;81.10;;;;;;6244088;23;20277;-73
2022/12/30 10:08:31;;;;;;;;;;;22.20;81.70;;;;;;6245536;22;19943;-73
2022/12/30 10:11:27;;;;;;;;;;;22.10;82.00;;;;;;6245677;22;19903;-73
2022/12/30 10:14:07;;;;;;;;;;;22.10;82.00;;;;;;6245637;22;19904;-73
2022/12/30 10:16:34;;;;;;;;;;;22.10;82.10;;;;;;6243975;23;20307;-73
2022/12/30 10:19:01;;;;;;;;;;;22.00;81.70;;;;;;6245337;22;19910;-73
2022/12/30 10:21:30;;;;;;;;;;;22.00;81.90;;;;;;6245716;22;20350;-73
2022/12/30 10:24:01;;;;;;;;;;;22.00;81.80;;;;;;6245896;22;19904;-73
2022/12/30 10:26:31;;;;;;;;;;;22.00;81.50;;;;;;6243981;23;20220;-73
2022/12/30 10:28:59;;;;;;;;;;;22.00;81.50;;;;;;6243944;23;19958;-73
2022/12/30 10:31:26;;;;;;;;;;;22.00;81.40;;;;;;6243725;22;19904;-73
2022/12/30 10:33:53;;;;;;;;;;;22.00;81.30;;;;;;6245281;22;19910;-73
2022/12/30 10:36:33;;;;;;;;;;;22.00;81.50;;;;;;6245245;22;19930;-73
2022/12/30 10:39:05;;;;;;;;;;;22.00;80.90;;;;;;6244932;22;19919;-73
2022/12/30 10:41:31;;;;;;;;;;;22.00;80.70;;;;;;6218378;23;19915;-73
2022/12/30 10:43:58;;;;;;;;;;;22.00;81.10;;;;;;6245407;22;19979;-73
2022/12/30 10:46:43;;;;;;;;;;;22.00;81.30;;;;;;6245455;22;19961;-73
2022/12/30 10:49:09;;;;;;;;;;;22.00;81.20;;;;;;6245232;23;19915;-73
2022/12/30 10:51:36;;;;;;;;;;;22.00;81.10;;;;;;6245207;22;19907;-73
2022/12/30 10:54:03;;;;;;;;;;;22.00;81.10;;;;;;6243967;23;20224;-73
2022/12/30 10:56:30;;;;;;;;;;;22.00;81.10;;;;;;6245221;22;20319;-73
2022/12/30 10:59:15;;;;;;;;;;;22.00;81.30;;;;;;6245309;22;19912;-73
2022/12/30 11:01:42;;;;;;;;;;;22.00;81.20;;;;;;6245208;22;19938;-73
2022/12/30 11:04:29;;;;;;;;;;;22.00;81.40;;;;;;6243704;23;19973;-73
2022/12/30 11:06:59;;;;;;;;;;;22.00;81.30;;;;;;6244401;22;19904;-73
2022/12/30 11:09:26;;;;;;;;;;;22.00;81.00;;;;;;6245331;22;20119;-73
2022/12/30 11:14:44;;;;;;;;;;;22.00;81.50;;;;;;6245380;23;19914;-73
2022/12/30 11:17:14;;;;;;;;;;;22.00;81.80;;;;;;6245032;22;19908;-73
2022/12/30 11:19:40;;;;;;;;;;;22.00;82.10;;;;;;6245076;22;19904;-73
2022/12/30 11:22:07;;;;;;;;;;;21.90;83.50;;;;;;6244968;22;19910;-73
2022/12/30 11:24:33;;;;;;;;;;;21.80;85.00;;;;;;6245275;22;20341;-73
2022/12/30 11:27:00;;;;;;;;;;;21.70;87.10;;;;;;6245031;22;19904;-73
2022/12/30 11:29:27;;;;;;;;;;;21.50;88.90;;;;;;6245148;22;19915;-72
2022/12/30 11:31:54;;;;;;;;;;;21.30;90.20;;;;;;6244924;22;19904;-71
2022/12/30 11:34:21;;;;;;;;;;;21.10;91.00;;;;;;6245472;22;19910;-72
2022/12/30 11:36:48;;;;;;;;;;;21.00;91.70;;;;;;6243738;23;19915;-72
2022/12/30 11:39:25;;;;;;;;;;;20.90;92.00;;;;;;6244756;22;19999;-73
2022/12/30 11:41:52;;;;;;;;;;;20.80;92.30;;;;;;6244547;22;19986;-72
2022/12/30 11:44:19;;;;;;;;;;;20.80;92.90;;;;;;6245199;22;20338;-72
2022/12/30 11:46:51;;;;;;;;;;;20.70;93.00;;;;;;6245504;22;19933;-72
2022/12/30 11:49:26;;;;;;;;;;;20.70;93.40;;;;;;6245308;22;20005;-72
2022/12/30 11:51:53;;;;;;;;;;;20.70;93.50;;;;;;6243245;22;20398;-72
2022/12/30 11:54:20;;;;;;;;;;;20.70;93.70;;;;;;6245045;22;19903;-72
2022/12/30 11:56:53;;;;;;;;;;;20.70;94.00;;;;;;6244955;22;19927;-72
2022/12/30 11:59:38;;;;;;;;;;;20.70;93.90;;;;;;6243902;23;19951;-71
2022/12/30 12:02:06;;;;;;;;;;;20.70;93.80;;;;;;6245075;22;20352;-72
2022/12/30 12:04:34;;;;;;;;;;;20.70;93.90;;;;;;6243457;23;19904;-72
2022/12/30 12:07:01;;;;;;;;;;;20.60;93.60;;;;;;6245069;22;20319;-72
2022/12/30 12:09:47;;;;;;;;;;;20.60;93.80;;;;;;6245032;22;20238;-72
2022/12/30 12:12:15;;;;;;;;;;;20.60;93.80;;;;;;6223984;22;19911;-72
2022/12/30 12:15:00;;;;;;;;;;;20.60;94.00;;;;;;6243533;23;19904;-72
2022/12/30 12:17:45;;;;;;;;;;;20.50;93.70;;;;;;6245220;22;19903;-72
2022/12/30 12:20:14;;;;;;;;;;;20.50;93.90;;;;;;6246706;23;20345;-72
2022/12/30 12:22:53;;;;;;;;;;;20.40;93.90;;;;;;6245617;22;19975;-72
2022/12/30 12:25:27;;;;;;;;;;;20.50;94.00;;;;;;6245078;23;20281;-72
2022/12/30 12:27:54;;;;;;;;;;;20.50;94.10;;;;;;6245154;23;19926;-72
2022/12/30 12:30:20;;;;;;;;;;;20.50;94.10;;;;;;6246689;22;19970;-72
2022/12/30 12:32:53;;;;;;;;;;;20.60;94.10;;;;;;6246749;22;19904;-72
2022/12/30 12:35:20;;;;;;;;;;;20.50;94.10;;;;;;6246675;22;19904;-72
2022/12/30 12:37:51;;;;;;;;;;;20.60;94.10;;;;;;6246477;22;20341;-72
2022/12/30 12:40:35;;;;;;;;;;;20.60;94.20;;;;;;6244920;23;19908;-73
2022/12/30 12:43:16;;;;;;;;;;;20.60;94.20;;;;;;6245190;22;20259;-72
2022/12/30 12:45:48;;;;;;;;;;;20.70;94.20;;;;;;6245273;23;19911;-72
2022/12/30 12:48:25;;;;;;;;;;;20.60;94.00;;;;;;6246439;22;19922;-72
2022/12/30 12:51:21;;;;;;;;;;;20.60;94.00;;;;;;6246385;22;19950;-72
2022/12/30 12:54:06;;;;;;;;;;;20.60;93.90;;;;;;6139048;22;19905;-72
2022/12/30 12:56:47;;;;;;;;;;;20.50;93.90;;;;;;6246670;23;20242;-72
2022/12/30 12:59:21;;;;;;;;;;;20.50;93.90;;;;;;6244880;23;19939;-73
2022/12/30 13:02:06;;;;;;;;;;;20.50;93.90;;;;;;6244811;22;19973;-72
2022/12/30 13:04:33;;;;;;;;;;;20.50;93.90;;;;;;6246396;23;19981;-72
2022/12/30 13:07:00;;;;;;;;;;;20.50;93.90;;;;;;6246665;22;19975;-72
2022/12/30 13:09:39;;;;;;;;;;;20.50;93.80;;;;;;6246326;22;20220;-72
2022/12/30 13:12:18;;;;;;;;;;;20.50;93.90;;;;;;6244634;22;19911;-73
2022/12/30 13:14:52;;;;;;;;;;;20.50;93.80;;;;;;6245325;23;19911;-72
2022/12/30 13:17:18;;;;;;;;;;;20.50;93.90;;;;;;6244878;23;19904;-72
2022/12/30 13:19:49;;;;;;;;;;;20.50;93.80;;;;;;6246239;22;19903;-73
2022/12/30 13:22:16;;;;;;;;;;;20.50;93.60;;;;;;6244810;22;19912;-72
2022/12/30 13:24:47;;;;;;;;;;;20.50;93.50;;;;;;6244855;23;19903;-72
2022/12/30 13:27:33;;;;;;;;;;;20.50;93.50;;;;;;6244791;23;19910;-72
2022/12/30 13:30:00;;;;;;;;;;;20.50;93.60;;;;;;6245434;22;19915;-73
2022/12/30 13:32:45;;;;;;;;;;;20.50;93.60;;;;;;6245849;22;19908;-72
2022/12/30 13:35:14;;;;;;;;;;;20.50;93.70;;;;;;6245986;22;19969;-72
2022/12/30 13:37:47;;;;;;;;;;;20.50;93.70;;;;;;6246173;22;19946;-72
2022/12/30 13:40:14;;;;;;;;;;;20.50;93.80;;;;;;6244661;23;20042;-72
2022/12/30 13:42:48;;;;;;;;;;;20.40;93.70;;;;;;6244050;22;20350;-72
2022/12/30 13:45:21;;;;;;;;;;;20.50;93.80;;;;;;6244432;23;19904;-72
2022/12/30 13:47:48;;;;;;;;;;;20.50;93.70;;;;;;6244524;23;19916;-72
2022/12/30 13:50:26;;;;;;;;;;;20.50;93.80;;;;;;6246010;22;19918;-72
2022/12/30 13:52:54;;;;;;;;;;;20.50;93.80;;;;;;6244256;22;19908;-72
2022/12/30 13:55:23;;;;;;;;;;;20.60;93.90;;;;;;6244632;23;19924;-72
2022/12/30 13:58:13;;;;;;;;;;;20.60;93.80;;;;;;6246187;22;19910;-72
2022/12/30 14:00:41;;;;;;;;;;;20.60;93.60;;;;;;6230637;23;19994;-72
2022/12/30 14:03:14;;;;;;;;;;;20.60;93.60;;;;;;6245522;22;20323;-72
2022/12/30 14:05:41;;;;;;;;;;;20.60;93.50;;;;;;6245657;22;19915;-72
2022/12/30 14:08:21;;;;;;;;;;;20.50;93.50;;;;;;6245818;22;20227;-72
2022/12/30 14:10:48;;;;;;;;;;;20.50;93.60;;;;;;6244604;22;19939;-72
2022/12/30 14:13:26;;;;;;;;;;;20.50;93.60;;;;;;6245615;22;19903;-72
2022/12/30 14:16:02;;;;;;;;;;;20.50;93.70;;;;;;6245887;22;19935;-72
2022/12/30 14:18:35;;;;;;;;;;;20.50;93.70;;;;;;6245996;22;20341;-73
2022/12/30 14:21:03;;;;;;;;;;;20.40;93.70;;;;;;6245766;22;21200;-72
2022/12/30 14:23:34;;;;;;;;;;;20.40;93.70;;;;;;6244261;23;19904;-72
2022/12/30 14:26:19;;;;;;;;;;;20.30;93.70;;;;;;6245388;22;19930;-73
2022/12/30 14:28:46;;;;;;;;;;;20.30;93.60;;;;;;6243791;23;19923;-72
2022/12/30 14:31:29;;;;;;;;;;;20.30;93.60;;;;;;6245659;22;19912;-72
2022/12/30 14:33:59;;;;;;;;;;;20.30;93.60;;;;;;6246057;22;19904;-72
2022/12/30 14:36:26;;;;;;;;;;;20.30;93.70;;;;;;6244260;23;19903;-72
2022/12/30 14:38:53;;;;;;;;;;;20.30;93.70;;;;;;6245092;22;19915;-72
2022/12/30 14:41:20;;;;;;;;;;;20.30;93.70;;;;;;6245281;22;20244;-72
2022/12/30 14:44:03;;;;;;;;;;;20.20;93.70;;;;;;6244860;22;19904;-72
2022/12/30 14:46:36;;;;;;;;;;;20.20;93.80;;;;;;6245337;22;19904;-73
2022/12/30 14:49:03;;;;;;;;;;;20.20;93.90;;;;;;6245511;22;19926;-72
2022/12/30 14:51:30;;;;;;;;;;;20.20;93.80;;;;;;6245356;22;19903;-72
2022/12/30 14:53:56;;;;;;;;;;;20.20;93.70;;;;;;6243973;23;20235;-72
2022/12/30 14:56:23;;;;;;;;;;;20.20;93.80;;;;;;6218665;23;20014;-73
2022/12/30 14:58:50;;;;;;;;;;;20.20;93.80;;;;;;6243768;23;20003;-72
2022/12/30 15:01:20;;;;;;;;;;;20.10;93.80;;;;;;6245199;22;19987;-72
2022/12/30 15:03:46;;;;;;;;;;;20.20;93.80;;;;;;6245360;22;19931;-72
2022/12/30 15:06:14;;;;;;;;;;;20.20;93.80;;;;;;6245519;22;19903;-72
2022/12/30 15:08:41;;;;;;;;;;;20.10;93.90;;;;;;6245152;22;19958;-73
2022/12/30 15:11:08;;;;;;;;;;;20.20;93.90;;;;;;6218659;23;19982;-72
2022/12/30 15:13:37;;;;;;;;;;;20.20;93.80;;;;;;6243388;23;19903;-72
2022/12/30 15:16:07;;;;;;;;;;;20.20;93.90;;;;;;6245416;22;19903;-72
2022/12/30 15:18:37;;;;;;;;;;;20.20;93.90;;;;;;6243573;23;19904;-72
2022/12/30 15:21:13;;;;;;;;;;;20.10;93.90;;;;;;6245415;22;19915;-72
2022/12/30 15:23:40;;;;;;;;;;;20.10;94.10;;;;;;6245772;22;19953;-72